createdAt,value
2019-06-01T00:01:32.176Z,16.61
2019-06-01T00:03:59.300Z,16.62
2019-06-01T00:06:26.709Z,16.62
2019-06-01T00:08:53.508Z,16.60
2019-06-01T00:11:20.455Z,16.56
2019-06-01T00:13:47.728Z,16.60
2019-06-01T00:16:14.677Z,16.58
2019-06-01T00:18:41.806Z,16.50
2019-06-01T00:21:08.696Z,16.48
2019-06-01T00:23:35.840Z,16.38
2019-06-01T00:26:02.893Z,16.43
2019-06-01T00:28:29.648Z,16.43
2019-06-01T00:30:56.652Z,16.23
2019-06-01T00:33:23.488Z,16.32
2019-06-01T00:35:51.669Z,16.34
2019-06-01T00:38:18.621Z,16.32
2019-06-01T00:40:45.966Z,15.88
2019-06-01T00:43:12.926Z,16.04
2019-06-01T00:45:40.121Z,16.05
2019-06-01T00:48:07.068Z,16.02
2019-06-01T00:50:34.049Z,16.15
2019-06-01T00:53:01.092Z,16.24
2019-06-01T00:55:28.037Z,16.28
2019-06-01T00:57:54.902Z,15.99
2019-06-01T01:00:21.581Z,16.16
2019-06-01T01:02:48.375Z,16.07
2019-06-01T01:05:16.207Z,16.05
2019-06-01T01:07:44.398Z,16.07
2019-06-01T01:10:11.764Z,15.97
2019-06-01T01:12:57.243Z,15.97
2019-06-01T01:15:25.618Z,15.80
2019-06-01T01:17:52.503Z,15.90
2019-06-01T01:20:19.180Z,15.90
2019-06-01T01:22:46.145Z,15.83
2019-06-01T01:25:13.714Z,15.79
2019-06-01T01:27:40.352Z,15.78
2019-06-01T01:30:07.374Z,15.82
2019-06-01T01:32:35.286Z,15.81
2019-06-01T01:35:02.648Z,15.86
2019-06-01T01:37:31.611Z,15.70
2019-06-01T01:39:58.644Z,15.74
2019-06-01T01:42:25.505Z,15.82
2019-06-01T01:44:52.515Z,15.84
2019-06-01T01:47:20.414Z,15.87
2019-06-01T01:49:47.010Z,15.82
2019-06-01T01:52:13.876Z,15.80
2019-06-01T01:54:40.438Z,15.63
2019-06-01T01:57:07.368Z,15.57
2019-06-01T01:59:34.210Z,15.44
2019-06-01T02:02:01.041Z,15.48
2019-06-01T02:04:28.121Z,15.51
2019-06-01T02:06:55.920Z,15.46
2019-06-01T02:09:22.926Z,15.27
2019-06-01T02:11:49.494Z,15.13
2019-06-01T02:14:16.156Z,15.08
2019-06-01T02:16:44.080Z,15.07
2019-06-01T02:19:10.821Z,15.19
2019-06-01T02:21:37.764Z,15.33
2019-06-01T02:24:04.714Z,15.16
2019-06-01T02:26:31.480Z,15.20
2019-06-01T02:28:59.513Z,14.96
2019-06-01T02:31:40.654Z,14.91
2019-06-01T02:33:56.293Z,14.99
2019-06-01T02:36:23.628Z,14.95
2019-06-01T02:38:50.791Z,15.08
2019-06-01T02:41:17.530Z,15.16
2019-06-01T02:43:44.329Z,15.24
2019-06-01T02:46:11.525Z,15.18
2019-06-01T02:48:39.619Z,15.08
2019-06-01T02:51:06.745Z,15.07
2019-06-01T02:53:33.494Z,14.86
2019-06-01T02:56:00.450Z,15.04
2019-06-01T02:58:27.202Z,15.08
2019-06-01T03:01:09.243Z,14.95
2019-06-01T03:03:36.119Z,15.08
2019-06-01T03:06:03.492Z,15.07
2019-06-01T03:08:30.960Z,14.96
2019-06-01T03:10:59.689Z,15.10
2019-06-01T03:13:27.187Z,15.08
2019-06-01T03:15:55.991Z,14.85
2019-06-01T03:18:23.124Z,14.85
2019-06-01T03:20:52.671Z,15.02
2019-06-01T03:23:21.314Z,15.13
2019-06-01T03:25:49.937Z,15.27
2019-06-01T03:28:17.772Z,15.27
2019-06-01T03:30:45.850Z,15.34
2019-06-01T03:33:14.284Z,15.37
2019-06-01T03:35:41.315Z,15.31
2019-06-01T03:38:09.264Z,15.44
2019-06-01T03:40:36.435Z,15.45
2019-06-01T03:43:04.893Z,15.16
2019-06-01T03:45:32.732Z,15.19
2019-06-01T03:48:00.522Z,15.43
2019-06-01T03:50:27.958Z,15.54
2019-06-01T03:52:55.117Z,15.67
2019-06-01T03:55:21.875Z,15.68
2019-06-01T03:57:49.306Z,15.66
2019-06-01T04:00:17.307Z,15.82
2019-06-01T04:02:44.120Z,15.84
2019-06-01T04:05:11.445Z,15.96
2019-06-01T04:07:39.054Z,16.05
2019-06-01T04:10:06.090Z,16.15
2019-06-01T04:12:33.062Z,16.32
2019-06-01T04:14:59.838Z,16.31
2019-06-01T04:17:26.570Z,16.45
2019-06-01T04:19:53.495Z,16.31
2019-06-01T04:22:20.920Z,16.26
2019-06-01T04:24:47.767Z,16.20
2019-06-01T04:27:14.711Z,16.16
2019-06-01T04:29:41.757Z,16.31
2019-06-01T04:32:09.136Z,16.41
2019-06-01T04:34:35.951Z,16.34
2019-06-01T04:37:03.566Z,16.48
2019-06-01T04:39:30.579Z,16.55
2019-06-01T04:41:57.464Z,16.63
2019-06-01T04:44:24.371Z,16.60
2019-06-01T04:46:51.276Z,16.93
2019-06-01T04:49:18.500Z,17.15
2019-06-01T04:51:45.640Z,17.07
2019-06-01T04:54:14.457Z,17.13
2019-06-01T04:56:41.094Z,17.05
2019-06-01T04:59:08.888Z,17.18
2019-06-01T05:01:35.944Z,17.35
2019-06-01T05:04:03.046Z,17.31
2019-06-01T05:06:29.750Z,17.04
2019-06-01T05:08:56.581Z,17.15
2019-06-01T05:11:23.313Z,16.89
2019-06-01T05:13:50.568Z,16.63
2019-06-01T05:16:17.333Z,16.77
2019-06-01T05:18:44.294Z,16.80
2019-06-01T05:21:12.616Z,16.68
2019-06-01T05:23:40.366Z,16.77
2019-06-01T05:26:08.674Z,16.86
2019-06-01T05:28:35.822Z,16.63
2019-06-01T05:31:02.567Z,16.57
2019-06-01T05:33:37.360Z,16.79
2019-06-01T05:35:58.304Z,16.85
2019-06-01T05:38:25.004Z,16.88
2019-06-01T05:40:51.684Z,16.79
2019-06-01T05:43:21.123Z,16.82
2019-06-01T05:45:47.311Z,16.93
2019-06-01T05:48:22.910Z,16.82
2019-06-01T05:50:42.865Z,16.53
2019-06-01T05:53:10.421Z,16.42
2019-06-01T05:55:37.220Z,16.72
2019-06-01T05:58:04.116Z,16.66
2019-06-01T06:00:38.409Z,16.65
2019-06-01T06:03:05.310Z,16.72
2019-06-01T06:05:32.239Z,16.89
2019-06-01T06:07:59.470Z,16.86
2019-06-01T06:10:26.192Z,16.75
2019-06-01T06:12:52.921Z,16.95
2019-06-01T06:15:19.995Z,17.01
2019-06-01T06:17:46.842Z,16.80
2019-06-01T06:20:13.822Z,16.79
2019-06-01T06:22:41.370Z,16.67
2019-06-01T06:25:09.948Z,16.66
2019-06-01T06:27:36.725Z,16.77
2019-06-01T06:30:03.959Z,16.96
2019-06-01T06:32:32.926Z,17.05
2019-06-01T06:35:00.044Z,17.13
2019-06-01T06:37:26.804Z,17.25
2019-06-01T06:39:53.500Z,17.38
2019-06-01T06:42:20.427Z,17.20
2019-06-01T06:44:47.681Z,17.34
2019-06-01T06:47:14.753Z,17.41
2019-06-01T06:49:41.757Z,17.32
2019-06-01T06:52:08.880Z,17.45
2019-06-01T06:54:35.924Z,17.63
2019-06-01T06:57:02.749Z,17.75
2019-06-01T06:59:29.562Z,17.69
2019-06-01T07:01:56.369Z,17.80
2019-06-01T07:04:23.520Z,17.77
2019-06-01T07:06:50.194Z,17.68
2019-06-01T07:09:17.887Z,17.71
2019-06-01T07:11:45.046Z,17.59
2019-06-01T07:14:12.070Z,17.62
2019-06-01T07:16:38.745Z,17.73
2019-06-01T07:19:05.698Z,17.88
2019-06-01T07:21:32.420Z,17.89
2019-06-01T07:23:59.321Z,17.92
2019-06-01T07:26:26.304Z,17.85
2019-06-01T07:28:53.982Z,17.92
2019-06-01T07:31:22.532Z,17.94
2019-06-01T07:33:50.332Z,18.17
2019-06-01T07:36:17.780Z,18.13
2019-06-01T07:38:45.318Z,18.09
2019-06-01T07:41:12.668Z,18.30
2019-06-01T07:43:39.954Z,18.54
2019-06-01T07:46:07.286Z,19.11
2019-06-01T07:48:34.642Z,19.40
2019-06-01T07:51:02.121Z,19.04
2019-06-01T07:53:29.869Z,18.73
2019-06-01T07:55:57.392Z,18.82
2019-06-01T07:58:24.941Z,18.99
2019-06-01T08:00:52.467Z,19.05
2019-06-01T08:03:19.894Z,19.03
2019-06-01T08:05:47.326Z,18.70
2019-06-01T08:08:15.305Z,18.50
2019-06-01T08:10:43.610Z,18.31
2019-06-01T08:13:11.324Z,18.50
2019-06-01T08:15:39.015Z,18.37
2019-06-01T08:18:06.579Z,18.54
2019-06-01T08:20:34.305Z,18.72
2019-06-01T08:23:01.565Z,18.85
2019-06-01T08:25:30.628Z,18.93
2019-06-01T08:27:58.327Z,19.10
2019-06-01T08:30:26.434Z,19.23
2019-06-01T08:32:53.846Z,19.21
2019-06-01T08:35:21.025Z,18.98
2019-06-01T08:37:48.492Z,19.06
2019-06-01T08:40:16.428Z,19.31
2019-06-01T08:42:43.914Z,19.39
2019-06-01T08:45:11.716Z,19.62
2019-06-01T08:47:39.521Z,20.22
2019-06-01T08:50:08.454Z,19.96
2019-06-01T08:52:35.931Z,20.28
2019-06-01T08:55:04.364Z,20.12
2019-06-01T08:57:34.580Z,20.15
2019-06-01T09:00:02.531Z,20.45
2019-06-01T09:02:30.859Z,20.92
2019-06-01T09:05:00.004Z,21.14
2019-06-01T09:07:27.240Z,21.35
2019-06-01T09:09:54.503Z,21.40
2019-06-01T09:12:21.921Z,21.18
2019-06-01T09:14:49.169Z,21.19
2019-06-01T09:17:18.758Z,21.75
2019-06-01T09:19:46.075Z,21.63
2019-06-01T09:22:13.891Z,21.64
2019-06-01T09:24:41.200Z,21.41
2019-06-01T09:27:08.906Z,21.93
2019-06-01T09:29:36.684Z,21.76
2019-06-01T09:32:04.442Z,22.28
2019-06-01T09:34:32.454Z,22.51
2019-06-01T09:37:00.039Z,22.71
2019-06-01T09:39:29.009Z,22.83
2019-06-01T09:41:56.911Z,22.84
2019-06-01T09:44:24.191Z,22.66
2019-06-01T09:46:51.628Z,22.66
2019-06-01T09:49:19.072Z,23.47
2019-06-01T09:51:46.446Z,23.97
2019-06-01T09:54:13.923Z,24.04
2019-06-01T09:56:41.618Z,24.85
2019-06-01T09:59:09.276Z,24.62
2019-06-01T10:01:36.782Z,23.75
2019-06-01T10:04:06.568Z,23.86
2019-06-01T10:06:34.694Z,23.97
2019-06-01T10:09:02.666Z,24.49
2019-06-01T10:11:32.602Z,25.09
2019-06-01T10:14:02.203Z,25.07
2019-06-01T10:16:30.455Z,24.58
2019-06-01T10:18:57.789Z,24.60
2019-06-01T10:21:26.379Z,25.45
2019-06-01T10:23:54.082Z,25.93
2019-06-01T10:26:21.716Z,25.72
2019-06-01T10:28:49.271Z,25.94
2019-06-01T10:31:16.617Z,24.67
2019-06-01T10:33:44.405Z,24.65
2019-06-01T10:36:20.771Z,24.73
2019-06-01T10:38:41.517Z,24.65
2019-06-01T10:41:08.936Z,24.70
2019-06-01T10:43:37.611Z,24.50
2019-06-01T10:46:05.018Z,24.35
2019-06-01T10:48:34.402Z,24.24
2019-06-01T10:51:01.940Z,24.30
2019-06-01T10:53:29.319Z,24.83
2019-06-01T10:55:56.962Z,25.11
2019-06-01T10:58:25.841Z,25.47
2019-06-01T11:00:53.689Z,24.53
2019-06-01T11:03:21.370Z,24.44
2019-06-01T11:05:49.240Z,24.13
2019-06-01T11:08:16.897Z,24.15
2019-06-01T11:10:44.224Z,24.37
2019-06-01T11:13:11.479Z,24.81
2019-06-01T11:15:39.099Z,25.81
2019-06-01T11:18:06.474Z,25.45
2019-06-01T11:20:35.108Z,24.98
2019-06-01T11:23:02.788Z,24.83
2019-06-01T11:25:30.615Z,25.26
2019-06-01T11:27:58.022Z,25.90
2019-06-01T11:30:26.956Z,26.18
2019-06-01T11:32:55.473Z,26.11
2019-06-01T11:35:22.921Z,27.07
2019-06-01T11:37:50.405Z,27.31
2019-06-01T11:40:17.873Z,27.55
2019-06-01T11:42:45.404Z,26.89
2019-06-01T11:45:12.919Z,25.79
2019-06-01T11:47:41.077Z,24.61
2019-06-01T11:50:08.854Z,24.41
2019-06-01T11:52:37.042Z,24.72
2019-06-01T11:55:06.134Z,24.46
2019-06-01T11:57:33.789Z,24.39
2019-06-01T12:00:03.603Z,25.86
2019-06-01T12:02:31.258Z,27.45
2019-06-01T12:04:58.588Z,27.20
2019-06-01T12:07:26.023Z,25.99
2019-06-01T12:09:53.212Z,25.80
2019-06-01T12:12:20.341Z,26.19
2019-06-01T12:14:48.131Z,26.67
2019-06-01T12:17:15.493Z,25.82
2019-06-01T12:19:43.161Z,25.83
2019-06-01T12:22:10.385Z,25.35
2019-06-01T12:24:38.771Z,25.78
2019-06-01T12:27:06.538Z,26.25
2019-06-01T12:29:33.968Z,26.70
2019-06-01T12:32:01.162Z,27.58
2019-06-01T12:34:28.756Z,27.31
2019-06-01T12:36:56.119Z,27.80
2019-06-01T12:39:23.705Z,27.87
2019-06-01T12:41:51.816Z,28.22
2019-06-01T12:44:19.649Z,27.98
2019-06-01T12:46:47.090Z,27.65
2019-06-01T12:49:14.688Z,27.43
2019-06-01T12:51:42.589Z,27.47
2019-06-01T12:54:10.615Z,27.63
2019-06-01T12:56:38.008Z,28.27
2019-06-01T12:59:05.511Z,28.61
2019-06-01T13:01:33.094Z,27.62
2019-06-01T13:04:01.206Z,26.84
2019-06-01T13:06:28.283Z,26.46
2019-06-01T13:08:55.720Z,27.11
2019-06-01T13:11:23.319Z,26.99
2019-06-01T13:13:51.433Z,26.73
2019-06-01T13:16:21.295Z,26.35
2019-06-01T13:18:49.508Z,25.96
2019-06-01T13:21:17.294Z,25.78
2019-06-01T13:23:45.446Z,26.07
2019-06-01T13:26:13.104Z,26.44
2019-06-01T13:28:41.660Z,26.21
2019-06-01T13:31:09.602Z,25.63
2019-06-01T13:33:36.948Z,25.81
2019-06-01T13:36:04.192Z,26.10
2019-06-01T13:38:31.837Z,25.78
2019-06-01T13:40:59.734Z,25.81
2019-06-01T13:43:27.007Z,25.51
2019-06-01T13:45:54.208Z,25.73
2019-06-01T13:48:21.322Z,25.60
2019-06-01T13:50:49.846Z,25.41
2019-06-01T13:53:17.110Z,25.15
2019-06-01T13:55:44.328Z,25.53
2019-06-01T13:58:11.527Z,25.51
2019-06-01T14:00:39.145Z,25.30
2019-06-01T14:03:06.425Z,25.50
2019-06-01T14:05:33.659Z,25.63
2019-06-01T14:08:01.091Z,25.72
2019-06-01T14:10:30.017Z,25.79
2019-06-01T14:12:57.921Z,25.89
2019-06-01T14:15:25.362Z,25.98
2019-06-01T14:17:52.808Z,26.08
2019-06-01T14:20:20.109Z,26.15
2019-06-01T14:22:47.956Z,26.23
2019-06-01T14:25:15.607Z,26.09
2019-06-01T14:27:43.012Z,25.85
2019-06-01T14:30:11.707Z,25.58
2019-06-01T14:32:39.969Z,25.42
2019-06-01T14:35:07.487Z,25.38
2019-06-01T14:37:34.847Z,25.36
2019-06-01T14:40:05.378Z,25.49
2019-06-01T14:42:32.965Z,25.29
2019-06-01T14:45:00.024Z,25.23
2019-06-01T14:47:27.794Z,25.09
2019-06-01T14:49:55.718Z,25.19
2019-06-01T14:52:23.315Z,25.34
2019-06-01T14:54:51.791Z,25.36
2019-06-01T14:57:19.683Z,25.46
2019-06-01T14:59:47.837Z,25.49
2019-06-01T15:02:15.141Z,25.54
2019-06-01T15:04:42.548Z,25.36
2019-06-01T15:07:10.083Z,25.31
2019-06-01T15:09:37.282Z,25.39
2019-06-01T15:12:04.863Z,25.39
2019-06-01T15:14:32.615Z,25.30
2019-06-01T15:17:00.056Z,25.35
2019-06-01T15:19:27.725Z,25.40
2019-06-01T15:21:56.225Z,25.26
2019-06-01T15:24:23.472Z,25.04
2019-06-01T15:26:50.830Z,25.03
2019-06-01T15:29:19.458Z,24.99
2019-06-01T15:31:46.944Z,24.86
2019-06-01T15:34:14.278Z,24.88
2019-06-01T15:36:41.377Z,24.99
2019-06-01T15:39:23.458Z,25.02
2019-06-01T15:41:38.247Z,25.06
2019-06-01T15:44:05.669Z,25.09
2019-06-01T15:46:33.608Z,25.14
2019-06-01T15:49:01.894Z,25.18
2019-06-01T15:51:29.548Z,25.15
2019-06-01T15:53:56.985Z,25.06
2019-06-01T15:56:24.367Z,25.02
2019-06-01T15:58:54.611Z,25.13
2019-06-01T16:01:21.363Z,25.05
2019-06-01T16:03:49.086Z,25.04
2019-06-01T16:06:16.910Z,24.99
2019-06-01T16:08:44.383Z,24.98
2019-06-01T16:11:11.896Z,24.97
2019-06-01T16:13:39.315Z,24.90
2019-06-01T16:16:06.933Z,24.98
2019-06-01T16:18:34.487Z,24.97
2019-06-01T16:21:02.326Z,24.95
2019-06-01T16:23:30.125Z,24.98
2019-06-01T16:26:12.169Z,24.93
2019-06-01T16:28:27.201Z,24.86
2019-06-01T16:30:54.863Z,24.93
2019-06-01T16:33:22.655Z,24.91
2019-06-01T16:35:50.239Z,24.93
2019-06-01T16:38:17.698Z,24.88
2019-06-01T16:40:45.972Z,24.87
2019-06-01T16:43:13.678Z,24.90
2019-06-01T16:45:41.178Z,24.84
2019-06-01T16:48:08.855Z,24.73
2019-06-01T16:50:36.354Z,24.67
2019-06-01T16:53:04.171Z,24.70
2019-06-01T16:55:33.688Z,24.72
2019-06-01T16:58:01.408Z,24.71
2019-06-01T17:00:29.002Z,24.69
2019-06-01T17:02:56.865Z,24.71
2019-06-01T17:05:25.017Z,24.71
2019-06-01T17:07:52.651Z,24.71
2019-06-01T17:10:26.209Z,24.71
2019-06-01T17:12:50.027Z,24.71
2019-06-01T17:15:18.167Z,24.59
2019-06-01T17:17:46.922Z,24.57
2019-06-01T17:20:37.655Z,24.50
2019-06-01T17:23:22.880Z,24.54
2019-06-01T17:25:35.370Z,24.52
2019-06-01T17:28:03.480Z,24.56
2019-06-01T17:30:31.708Z,24.58
2019-06-01T17:33:00.279Z,24.54
2019-06-01T17:35:27.737Z,24.49
2019-06-01T17:37:55.424Z,24.50
2019-06-01T17:40:36.595Z,24.48
2019-06-01T17:42:53.254Z,24.46
2019-06-01T17:45:20.537Z,24.38
2019-06-01T17:47:47.999Z,24.33
2019-06-01T17:50:18.927Z,24.23
2019-06-01T17:52:46.293Z,24.20
2019-06-01T17:55:28.031Z,24.22
2019-06-01T17:57:55.719Z,24.16
2019-06-01T18:00:23.324Z,24.17
2019-06-01T18:02:51.025Z,24.12
2019-06-01T18:05:19.399Z,24.12
2019-06-01T18:07:46.883Z,24.13
2019-06-01T18:10:15.081Z,24.06
2019-06-01T18:12:43.685Z,24.06
2019-06-01T18:15:12.832Z,24.06
2019-06-01T18:17:40.147Z,24.05
2019-06-01T18:20:08.830Z,24.02
2019-06-01T18:22:36.354Z,23.98
2019-06-01T18:25:04.555Z,23.96
2019-06-01T18:27:32.344Z,23.90
2019-06-01T18:29:59.817Z,23.85
2019-06-01T18:32:27.722Z,23.87
2019-06-01T18:34:55.210Z,23.70
2019-06-01T18:37:23.163Z,23.71
2019-06-01T18:39:51.533Z,23.71
2019-06-01T18:42:24.716Z,23.70
2019-06-01T18:44:52.343Z,23.73
2019-06-01T18:47:31.979Z,23.66
2019-06-01T18:49:50.408Z,23.62
2019-06-01T18:52:17.985Z,23.60
2019-06-01T18:54:45.355Z,23.55
2019-06-01T18:57:19.202Z,23.58
2019-06-01T18:59:42.707Z,23.49
2019-06-01T19:02:10.534Z,23.42
2019-06-01T19:04:38.139Z,23.35
2019-06-01T19:07:07.054Z,23.38
2019-06-01T19:09:34.794Z,23.28
2019-06-01T19:12:02.271Z,23.28
2019-06-01T19:14:30.354Z,23.22
2019-06-01T19:16:58.219Z,23.18
2019-06-01T19:19:25.949Z,23.14
2019-06-01T19:21:54.673Z,23.15
2019-06-01T19:24:22.073Z,23.19
2019-06-01T19:26:49.590Z,23.11
2019-06-01T19:29:17.381Z,22.98
2019-06-01T19:31:44.771Z,23.00
2019-06-01T19:34:12.973Z,22.98
2019-06-01T19:36:42.432Z,23.03
2019-06-01T19:39:11.134Z,22.98
2019-06-01T19:41:44.731Z,22.88
2019-06-01T19:44:09.353Z,22.79
2019-06-01T19:46:37.003Z,22.70
2019-06-01T19:49:04.456Z,22.64
2019-06-01T19:51:32.023Z,22.64
2019-06-01T19:53:59.373Z,22.60
2019-06-01T19:56:27.364Z,22.53
2019-06-01T19:58:55.821Z,22.50
2019-06-01T20:01:23.555Z,22.46
2019-06-01T20:03:51.358Z,22.41
2019-06-01T20:06:19.002Z,22.37
2019-06-01T20:08:45.929Z,22.31
2019-06-01T20:11:13.293Z,22.27
2019-06-01T20:13:40.902Z,22.26
2019-06-01T20:16:08.316Z,22.24
2019-06-01T20:18:35.963Z,22.24
2019-06-01T20:21:03.229Z,22.26
2019-06-01T20:23:30.838Z,22.21
2019-06-01T20:25:58.227Z,22.21
2019-06-01T20:28:26.703Z,22.17
2019-06-01T20:30:54.241Z,22.07
2019-06-01T20:33:22.674Z,21.99
2019-06-01T20:35:50.384Z,21.87
2019-06-01T20:38:18.486Z,21.80
2019-06-01T20:40:46.528Z,21.80
2019-06-01T20:43:14.668Z,21.22
2019-06-01T20:45:43.210Z,21.20
2019-06-01T20:48:10.945Z,21.19
2019-06-01T20:50:39.362Z,21.43
2019-06-01T20:53:06.981Z,21.51
2019-06-01T20:55:34.619Z,21.59
2019-06-01T20:58:02.210Z,21.59
2019-06-01T21:00:31.957Z,21.59
2019-06-01T21:02:58.991Z,21.54
2019-06-01T21:05:26.251Z,21.43
2019-06-01T21:07:57.094Z,21.33
2019-06-01T21:10:24.115Z,21.26
2019-06-01T21:12:54.857Z,21.12
2019-06-01T21:15:23.399Z,21.09
2019-06-01T21:17:51.091Z,21.08
2019-06-01T21:20:25.334Z,21.01
2019-06-01T21:22:48.700Z,21.11
2019-06-01T21:25:16.833Z,21.10
2019-06-01T21:27:44.426Z,21.13
2019-06-01T21:30:13.065Z,21.01
2019-06-01T21:32:40.626Z,20.97
2019-06-01T21:35:08.860Z,20.93
2019-06-01T21:37:36.365Z,20.86
2019-06-01T21:40:04.651Z,20.70
2019-06-01T21:42:32.432Z,20.61
2019-06-01T21:45:00.359Z,20.63
2019-06-01T21:47:29.189Z,20.59
2019-06-01T21:49:56.888Z,20.58
2019-06-01T21:52:24.849Z,20.61
2019-06-01T21:54:53.172Z,20.50
2019-06-01T21:57:22.221Z,20.50
2019-06-01T21:59:49.923Z,20.36
2019-06-01T22:02:18.704Z,20.25
2019-06-01T22:04:46.093Z,20.31
2019-06-01T22:07:13.525Z,20.11
2019-06-01T22:09:41.387Z,19.96
2019-06-01T22:12:08.894Z,19.91
2019-06-01T22:14:36.587Z,19.85
2019-06-01T22:17:03.965Z,19.73
2019-06-01T22:19:31.758Z,19.76
2019-06-01T22:21:59.326Z,19.84
2019-06-01T22:24:28.302Z,19.79
2019-06-01T22:26:56.011Z,19.71
2019-06-01T22:29:24.405Z,19.73
2019-06-01T22:31:53.511Z,19.87
2019-06-01T22:34:20.956Z,19.73
2019-06-01T22:36:48.349Z,19.81
2019-06-01T22:39:15.750Z,19.64
2019-06-01T22:41:45.222Z,19.57
2019-06-01T22:44:12.596Z,19.67
2019-06-01T22:46:39.985Z,19.55
2019-06-01T22:49:07.585Z,19.51
2019-06-01T22:51:35.239Z,19.60
2019-06-01T22:54:03.121Z,19.64
2019-06-01T22:56:31.520Z,19.63
2019-06-01T22:58:59.249Z,19.67
2019-06-01T23:01:26.962Z,19.73
2019-06-01T23:03:54.587Z,19.75
2019-06-01T23:06:22.917Z,19.73
2019-06-01T23:08:50.453Z,19.72
2019-06-01T23:11:18.093Z,19.69
2019-06-01T23:13:53.308Z,19.66
2019-06-01T23:16:16.671Z,19.60
2019-06-01T23:18:44.392Z,19.56
2019-06-01T23:21:11.968Z,19.56
2019-06-01T23:23:39.489Z,19.51
2019-06-01T23:26:07.040Z,19.47
2019-06-01T23:28:38.443Z,19.46
2019-06-01T23:31:03.673Z,19.49
2019-06-01T23:33:31.054Z,19.47
2019-06-01T23:35:58.962Z,19.47
2019-06-01T23:38:26.647Z,19.30
2019-06-01T23:40:54.298Z,19.09
2019-06-01T23:43:22.674Z,18.99
2019-06-01T23:45:50.326Z,19.00
2019-06-01T23:48:18.007Z,18.99
2019-06-01T23:50:45.276Z,19.08
2019-06-01T23:53:13.948Z,19.06
2019-06-01T23:55:41.657Z,19.08
2019-06-01T23:58:08.921Z,19.07
